Time;durP1;ratioP1;P1;durP2;ratioP2;P2;SDS_P1;SDS_P2;PMS_P1;PMS_P2;Temp;Humidity;BMP_temperature;BMP_pressure;BME280_temperature;BME280_humidity;BME280_pressure;Samples;Min_cycle;Max_cycle;Signal;HPM_P1;HPM_P2
2022/08/14 00:01:31;;;;;;;6.90;3.17;;;21.80;99.90;;;;;;5112646;28;20094;-74
2022/08/14 00:03:58;;;;;;;5.43;3.60;;;21.70;99.90;;;;;;5113598;28;20513;-74
2022/08/14 00:06:26;;;;;;;8.30;3.83;;;21.70;99.90;;;;;;5112598;28;20040;-73
2022/08/14 00:08:55;;;;;;;8.48;3.20;;;21.70;99.90;;;;;;5112175;28;20073;-74
2022/08/14 00:11:26;;;;;;;3.60;2.90;;;21.60;99.90;;;;;;5112006;28;20401;-74
2022/08/14 00:13:57;;;;;;;8.95;3.22;;;21.60;99.90;;;;;;5093470;28;20047;-74
2022/08/14 00:16:24;;;;;;;4.57;3.00;;;21.60;99.90;;;;;;5093014;28;20502;-75
2022/08/14 00:19:07;;;;;;;5.85;3.15;;;21.60;99.90;;;;;;5094360;28;20131;-75
2022/08/14 00:21:50;;;;;;;4.10;3.30;;;21.60;99.90;;;;;;5113622;28;20134;-74
2022/08/14 00:24:18;;;;;;;5.38;3.15;;;21.50;99.90;;;;;;5113645;28;20390;-72
2022/08/14 00:26:57;;;;;;;;;;;21.50;99.90;;;;;;5112723;28;20505;-74
2022/08/14 00:29:29;;;;;;;8.20;3.65;;;21.50;99.90;;;;;;5113594;28;19920;-74
2022/08/14 00:32:07;;;;;;;5.82;3.35;;;21.50;99.90;;;;;;5110233;28;20059;-73
2022/08/14 00:34:55;;;;;;;6.13;4.20;;;21.40;99.90;;;;;;5113007;28;20440;-74
2022/08/14 00:37:22;;;;;;;5.03;3.22;;;21.40;99.90;;;;;;5112144;28;20040;-73
2022/08/14 00:39:49;;;;;;;7.63;4.47;;;21.40;99.90;;;;;;5113166;28;20125;-74
2022/08/14 00:42:21;;;;;;;9.52;4.18;;;21.40;99.90;;;;;;5112331;28;20040;-74
2022/08/14 00:45:10;;;;;;;10.45;5.53;;;21.40;99.90;;;;;;5113422;28;20047;-73
2022/08/14 00:47:40;;;;;;;5.90;5.18;;;21.30;99.90;;;;;;5113150;28;20051;-74
2022/08/14 00:50:13;;;;;;;7.43;5.55;;;21.30;99.90;;;;;;5113232;28;20043;-74
2022/08/14 00:52:47;;;;;;;8.75;5.68;;;21.30;99.90;;;;;;5111427;28;20049;-73
2022/08/14 00:55:18;;;;;;;10.13;6.38;;;21.20;99.90;;;;;;5111687;28;20070;-74
2022/08/14 00:58:29;;;;;;;9.25;6.50;;;21.20;99.90;;;;;;5111463;28;20158;-73
2022/08/14 01:00:33;;;;;;;7.50;6.75;;;21.20;99.90;;;;;;5112053;28;20067;-74
2022/08/14 01:03:17;;;;;;;7.45;6.75;;;21.10;99.90;;;;;;5093962;28;20075;-74
2022/08/14 01:05:48;;;;;;;11.23;8.98;;;21.10;99.90;;;;;;5092205;28;20052;-74
2022/08/14 01:08:19;;;;;;;11.25;9.13;;;21.00;99.90;;;;;;5083291;28;20052;-73
2022/08/14 01:11:06;;;;;;;12.75;9.63;;;21.00;99.90;;;;;;5112002;28;20055;-73
2022/08/14 01:13:38;;;;;;;11.48;10.10;;;21.00;99.90;;;;;;5111435;28;20157;-74
2022/08/14 01:16:13;;;;;;;13.02;11.20;;;20.90;99.90;;;;;;5111601;28;20451;-74
2022/08/14 01:21:35;;;;;;;12.35;11.15;;;20.90;99.90;;;;;;5098512;28;20482;-75
2022/08/14 01:24:15;;;;;;;13.82;12.52;;;20.90;99.90;;;;;;5111133;28;20051;-74
2022/08/14 01:27:00;;;;;;;14.43;13.02;;;20.90;99.90;;;;;;5111812;28;20060;-75
2022/08/14 01:29:34;;;;;;;17.10;14.45;;;20.80;99.90;;;;;;5112256;28;20043;-74
2022/08/14 01:32:21;;;;;;;16.65;14.25;;;20.80;99.90;;;;;;5084718;28;20044;-74
2022/08/14 01:34:53;;;;;;;15.77;14.23;;;20.80;99.90;;;;;;5109293;28;20047;-75
2022/08/14 01:37:45;;;;;;;14.77;13.18;;;20.80;99.90;;;;;;5111750;28;20286;-73
2022/08/14 01:40:22;;;;;;;15.00;13.40;;;20.80;99.90;;;;;;5112141;28;20052;-74
2022/08/14 01:42:59;;;;;;;15.57;13.98;;;20.80;99.90;;;;;;5111673;28;20052;-74
2022/08/14 01:45:28;;;;;;;17.05;14.93;;;20.70;99.90;;;;;;5077242;28;20067;-75
2022/08/14 01:48:06;;;;;;;16.30;14.43;;;20.70;99.90;;;;;;5095871;28;20052;-75
2022/08/14 01:50:40;;;;;;;16.08;14.20;;;20.70;99.90;;;;;;5110040;28;20047;-74
2022/08/14 01:53:07;;;;;;;14.73;13.37;;;20.70;99.90;;;;;;5094474;28;20495;-72
2022/08/14 01:55:34;;;;;;;17.23;15.52;;;20.60;99.90;;;;;;5094267;28;20293;-75
2022/08/14 01:58:01;;;;;;;16.75;15.15;;;20.60;99.90;;;;;;5102319;28;20061;-75
2022/08/14 02:00:53;;;;;;;19.85;15.60;;;20.60;99.90;;;;;;5115719;28;20139;-74
2022/08/14 02:03:23;;;;;;;17.73;16.05;;;20.60;99.90;;;;;;5115287;28;20130;-69
2022/08/14 02:05:57;;;;;;;16.33;14.82;;;20.50;99.90;;;;;;5115499;28;20479;-72
2022/08/14 02:08:29;;;;;;;17.90;14.68;;;20.50;99.90;;;;;;5113465;28;20482;-72
2022/08/14 02:11:16;;;;;;;14.90;13.40;;;20.50;99.90;;;;;;5115239;28;20077;-74
2022/08/14 02:13:45;;;;;;;19.27;17.48;;;20.40;99.90;;;;;;5114920;28;20075;-74
2022/08/14 02:16:16;;;;;;;19.88;17.92;;;20.40;99.90;;;;;;5114923;28;20459;-74
2022/08/14 02:18:48;;;;;;;18.27;15.93;;;20.40;99.90;;;;;;5098474;28;20048;-74
2022/08/14 02:21:32;;;;;;;16.58;15.00;;;20.40;99.90;;;;;;5115836;28;20051;-74
2022/08/14 02:24:12;;;;;;;16.95;15.27;;;20.40;99.90;;;;;;5115438;28;20062;-73
2022/08/14 02:26:59;;;;;;;16.88;15.27;;;20.30;99.90;;;;;;5115521;27;20044;-74
2022/08/14 02:29:46;;;;;;;16.08;14.40;;;20.20;99.90;;;;;;5116047;28;20047;-73
2022/08/14 02:32:32;;;;;;;18.10;16.30;;;20.20;99.90;;;;;;5114816;28;20043;-73
2022/08/14 02:35:17;;;;;;;16.27;14.10;;;20.10;99.90;;;;;;5111356;28;20086;-74
2022/08/14 02:37:48;;;;;;;15.38;13.80;;;20.10;99.90;;;;;;5114573;28;20052;-74
2022/08/14 02:40:17;;;;;;;15.65;14.25;;;20.10;99.90;;;;;;5113621;28;20039;-74
2022/08/14 02:42:44;;;;;;;16.77;15.25;;;20.00;99.90;;;;;;5115638;28;20122;-73
2022/08/14 02:45:24;;;;;;;17.38;15.55;;;19.90;99.90;;;;;;5114174;28;20044;-74
2022/08/14 02:48:01;;;;;;;18.00;16.13;;;19.90;99.90;;;;;;5115548;28;20052;-73
2022/08/14 02:50:28;;;;;;;;;;;19.80;99.90;;;;;;5094335;28;20063;-74
2022/08/14 02:52:59;;;;;;;16.55;14.93;;;19.70;99.90;;;;;;5113575;28;19919;-75
2022/08/14 02:55:34;;;;;;;15.63;14.10;;;19.70;99.90;;;;;;5113606;28;20051;-75
2022/08/14 02:58:03;;;;;;;17.85;15.98;;;19.60;99.90;;;;;;5096883;28;20057;-75
2022/08/14 03:00:34;;;;;;;17.73;15.95;;;19.50;99.90;;;;;;5115301;28;20070;-72
2022/08/14 03:03:06;;;;;;;16.55;15.10;;;19.50;99.90;;;;;;5115251;28;20047;-75
2022/08/14 03:05:34;;;;;;;18.30;16.50;;;19.50;99.90;;;;;;5114768;28;20048;-74
2022/08/14 03:08:07;;;;;;;18.52;16.63;;;19.40;99.90;;;;;;5104745;28;20040;-75
2022/08/14 03:10:35;;;;;;;18.02;16.13;;;19.40;99.90;;;;;;5092732;28;20504;-74
2022/08/14 03:13:08;;;;;;;17.65;15.95;;;19.30;99.90;;;;;;5093568;28;20129;-75
2022/08/14 03:15:50;;;;;;;18.70;16.80;;;19.30;99.90;;;;;;5093628;28;20044;-75
2022/08/14 03:18:26;;;;;;;19.67;17.67;;;19.30;99.90;;;;;;5093737;28;20054;-74
2022/08/14 03:20:59;;;;;;;19.10;17.20;;;19.20;99.90;;;;;;5110548;28;20506;-74
2022/08/14 03:23:26;;;;;;;18.10;16.40;;;19.20;99.90;;;;;;5113316;28;20044;-74
2022/08/14 03:25:53;;;;;;;20.75;18.75;;;19.10;99.90;;;;;;5113125;28;20047;-74
2022/08/14 03:28:23;;;;;;;19.30;17.30;;;19.10;99.90;;;;;;5114782;28;20079;-74
2022/08/14 03:30:59;;;;;;;18.60;16.73;;;19.00;99.90;;;;;;5097837;28;20089;-74
2022/08/14 03:33:29;;;;;;;18.35;16.35;;;19.00;99.90;;;;;;5113031;28;20065;-74
2022/08/14 03:36:11;;;;;;;17.23;15.68;;;18.90;99.90;;;;;;5110552;28;20047;-67
2022/08/14 03:38:58;;;;;;;16.67;14.95;;;18.90;99.90;;;;;;5113313;28;20050;-74
2022/08/14 03:41:46;;;;;;;19.83;17.98;;;18.90;99.90;;;;;;5099095;28;20483;-74
2022/08/14 03:44:13;;;;;;;20.00;17.92;;;18.80;99.90;;;;;;5105675;28;20044;-73
2022/08/14 03:47:00;;;;;;;19.67;17.77;;;18.80;99.90;;;;;;5089202;28;20093;-74
2022/08/14 03:49:28;;;;;;;18.73;16.75;;;18.70;99.90;;;;;;5097882;28;20049;-75
2022/08/14 03:52:07;;;;;;;18.77;17.02;;;18.70;99.90;;;;;;5114079;28;20055;-74
2022/08/14 03:54:59;;;;;;;18.73;16.42;;;18.70;99.90;;;;;;5114482;28;20039;-74
2022/08/14 03:57:31;;;;;;;19.38;17.40;;;18.60;99.90;;;;;;5112351;28;20861;-74
2022/08/14 04:00:01;;;;;;;18.08;16.33;;;18.60;99.90;;;;;;5113827;28;20080;-74
2022/08/14 04:02:29;;;;;;;19.02;16.50;;;18.60;99.90;;;;;;5092113;28;20135;-74
2022/08/14 04:05:12;;;;;;;20.27;18.15;;;18.50;99.90;;;;;;5092164;28;20044;-74
2022/08/14 04:07:43;;;;;;;19.05;17.23;;;18.50;99.90;;;;;;5092346;28;20135;-75
2022/08/14 04:10:30;;;;;;;20.05;18.17;;;18.40;99.90;;;;;;5091584;28;20040;-75
2022/08/14 04:13:00;;;;;;;20.77;18.20;;;18.40;99.90;;;;;;5093541;28;20051;-74
2022/08/14 04:15:29;;;;;;;17.42;15.68;;;18.40;99.90;;;;;;5108230;28;20052;-74
2022/08/14 04:17:57;;;;;;;15.90;14.20;;;18.30;99.90;;;;;;5093086;28;20050;-75
2022/08/14 04:20:26;;;;;;;;;;;18.30;99.90;;;;;;5106401;28;20052;-74
2022/08/14 04:22:53;;;;;;;13.93;12.63;;;18.30;99.90;;;;;;5111882;28;19919;-74
2022/08/14 04:25:21;;;;;;;15.23;13.45;;;18.20;99.90;;;;;;5111639;28;20517;-74
2022/08/14 04:27:48;;;;;;;13.93;12.73;;;18.20;99.90;;;;;;5113580;28;20047;-72
2022/08/14 04:30:38;;;;;;;13.00;11.80;;;18.20;99.90;;;;;;5106888;28;20051;-74
2022/08/14 04:33:08;;;;;;;13.10;11.77;;;18.10;99.90;;;;;;5096396;28;20044;-74
2022/08/14 04:35:46;;;;;;;16.23;11.70;;;18.10;99.90;;;;;;5113125;28;20048;-75
2022/08/14 04:43:56;;;;;;;13.95;11.18;;;18.00;99.90;;;;;;5112057;28;20042;-74
2022/08/14 04:46:24;;;;;;;13.60;12.35;;;18.00;99.90;;;;;;5113335;28;20130;-74
2022/08/14 04:49:12;;;;;;;13.10;11.85;;;17.90;99.90;;;;;;5112310;28;20070;-73
2022/08/14 04:51:41;;;;;;;15.57;12.63;;;17.90;99.90;;;;;;5091211;28;20047;-73
2022/08/14 04:54:25;;;;;;;14.48;10.48;;;17.90;99.90;;;;;;5073162;28;20094;-74
2022/08/14 04:56:54;;;;;;;13.30;12.00;;;17.80;99.90;;;;;;5074649;28;20060;-74
2022/08/14 04:59:21;;;;;;;14.05;11.95;;;17.80;99.90;;;;;;5110256;28;20040;-74
2022/08/14 05:01:48;;;;;;;12.90;11.57;;;17.80;99.90;;;;;;5111457;28;20051;-74
2022/08/14 05:04:23;;;;;;;12.80;11.63;;;17.80;99.90;;;;;;5096089;28;20496;-74
2022/08/14 05:06:52;;;;;;;13.98;12.68;;;17.80;99.90;;;;;;5103022;28;20052;-73
2022/08/14 05:12:53;;;;;;;13.27;12.02;;;17.80;99.90;;;;;;5112521;28;19972;-74
2022/08/14 05:15:40;;;;;;;14.38;12.90;;;17.80;99.90;;;;;;5112345;28;20081;-74
2022/08/14 05:18:13;;;;;;;14.45;12.95;;;17.80;99.90;;;;;;5094949;28;20050;-74
2022/08/14 05:21:03;;;;;;;13.82;12.00;;;17.80;99.90;;;;;;5115084;28;20077;-75
2022/08/14 05:23:50;;;;;;;14.25;11.70;;;17.80;99.90;;;;;;5115468;28;20054;-72
2022/08/14 05:26:20;;;;;;;13.15;11.85;;;18.00;99.90;;;;;;5116949;28;20076;-74
2022/08/14 05:28:47;;;;;;;13.38;12.07;;;18.10;99.90;;;;;;5116918;28;20051;-74
2022/08/14 05:31:16;;;;;;;11.68;10.55;;;18.20;99.90;;;;;;5115135;28;20039;-73
2022/08/14 05:33:48;;;;;;;14.80;12.00;;;18.30;99.90;;;;;;5115450;28;20483;-75
2022/08/14 05:36:22;;;;;;;11.88;10.63;;;18.60;99.90;;;;;;5116809;28;20051;-72
2022/08/14 05:38:49;;;;;;;13.05;11.77;;;19.00;99.90;;;;;;5116809;28;20461;-74
2022/08/14 05:41:18;;;;;;;12.00;10.90;;;19.30;99.90;;;;;;5115166;28;20051;-74
2022/08/14 05:43:47;;;;;;;12.27;11.07;;;19.40;99.90;;;;;;5115147;28;20114;-74
2022/08/14 05:46:21;;;;;;;13.23;11.88;;;19.50;99.90;;;;;;5115726;28;20051;-74
2022/08/14 05:48:53;;;;;;;11.63;10.50;;;19.70;99.90;;;;;;5116834;28;20047;-74
2022/08/14 05:51:20;;;;;;;13.45;12.23;;;19.90;99.90;;;;;;5096711;28;20063;-74
2022/08/14 05:53:47;;;;;;;13.35;12.02;;;19.90;99.90;;;;;;5114268;28;20070;-72
2022/08/14 05:56:27;;;;;;;12.75;11.50;;;20.00;99.90;;;;;;5107732;28;20055;-73
2022/08/14 05:58:54;;;;;;;13.52;12.23;;;19.90;99.90;;;;;;5102249;28;20039;-75
2022/08/14 06:01:21;;;;;;;14.07;12.68;;;19.90;99.90;;;;;;5106913;28;20407;-73
2022/08/14 06:03:49;;;;;;;13.65;11.63;;;19.90;99.90;;;;;;5094931;28;20388;-73
2022/08/14 06:06:20;;;;;;;17.38;13.15;;;20.00;99.90;;;;;;5110778;28;20047;-74
2022/08/14 06:09:09;;;;;;;14.05;12.68;;;20.00;99.90;;;;;;5091118;28;20134;-74
2022/08/14 06:11:36;;;;;;;18.50;13.80;;;20.00;99.90;;;;;;5113976;28;20043;-73
2022/08/14 06:14:23;;;;;;;14.93;13.52;;;20.00;99.90;;;;;;5116088;28;20050;-74
2022/08/14 06:16:52;;;;;;;13.30;11.98;;;20.10;99.90;;;;;;5109773;28;20071;-73
2022/08/14 06:23:10;;;;;;;15.20;13.60;;;20.20;99.90;;;;;;5109990;28;20198;-73
2022/08/14 06:25:37;;;;;;;15.43;13.93;;;20.20;99.90;;;;;;5111517;28;20056;-74
2022/08/14 06:28:08;;;;;;;15.90;14.38;;;20.30;99.90;;;;;;5113796;28;20519;-73
2022/08/14 06:30:54;;;;;;;16.20;14.60;;;20.40;99.90;;;;;;5096362;28;20040;-73
2022/08/14 06:33:21;;;;;;;18.52;12.75;;;20.50;99.90;;;;;;5110668;28;20509;-70
2022/08/14 06:35:48;;;;;;;17.17;13.55;;;20.60;99.90;;;;;;5106165;28;20055;-73
2022/08/14 06:38:17;;;;;;;14.15;12.70;;;20.70;99.90;;;;;;5113243;28;20451;-73
2022/08/14 06:40:44;;;;;;;13.43;12.13;;;20.80;99.90;;;;;;5094703;28;20411;-73
2022/08/14 06:43:12;;;;;;;14.40;12.05;;;20.90;99.90;;;;;;5112889;28;20054;-71
2022/08/14 06:49:32;;;;;;;14.05;11.65;;;21.10;99.90;;;;;;5102366;28;20118;-73
2022/08/14 06:52:30;;;;;;;12.55;11.15;;;21.20;99.90;;;;;;5112490;27;20168;-74
2022/08/14 06:55:21;;;;;;;14.05;12.52;;;21.30;99.90;;;;;;5098812;28;20493;-74
2022/08/14 06:57:54;;;;;;;12.30;11.18;;;21.40;99.90;;;;;;5113439;27;20518;-73
2022/08/14 07:00:32;;;;;;;13.82;12.35;;;21.50;99.90;;;;;;5099735;28;20054;-74
2022/08/14 07:05:47;;;;;;;12.18;10.88;;;21.60;99.90;;;;;;5114413;28;20043;-73
2022/08/14 07:08:26;;;;;;;10.93;9.82;;;21.80;99.90;;;;;;5113767;28;20044;-73
2022/08/14 07:10:59;;;;;;;11.93;10.02;;;21.90;99.90;;;;;;5108763;28;20083;-74
2022/08/14 07:13:27;;;;;;;12.00;9.73;;;22.00;99.90;;;;;;5094868;28;20097;-73
2022/08/14 07:15:57;;;;;;;9.40;8.50;;;22.10;99.90;;;;;;5112603;28;20526;-74
2022/08/14 07:18:25;;;;;;;10.20;8.77;;;22.20;99.90;;;;;;5105635;28;20070;-73
2022/08/14 07:20:53;;;;;;;11.03;7.73;;;22.30;99.90;;;;;;5088159;28;20403;-71
2022/08/14 07:23:22;;;;;;;12.88;8.80;;;22.40;99.90;;;;;;5105017;28;20097;-73
2022/08/14 07:25:51;;;;;;;11.77;8.35;;;22.50;99.90;;;;;;5111132;28;20058;-73
2022/08/14 07:28:26;;;;;;;7.55;6.85;;;22.60;99.90;;;;;;5113987;28;20047;-73
2022/08/14 07:30:56;;;;;;;9.73;6.95;;;22.70;99.90;;;;;;5112610;28;20066;-72
2022/08/14 07:33:36;;;;;;;9.17;6.97;;;22.80;99.90;;;;;;5111684;28;20114;-71
2022/08/14 07:36:10;;;;;;;11.63;6.65;;;22.90;99.90;;;;;;5109747;28;22014;-74
2022/08/14 07:38:53;;;;;;;6.70;5.13;;;23.00;99.90;;;;;;5113160;28;20112;-72
2022/08/14 07:41:21;;;;;;;7.67;5.60;;;23.10;99.90;;;;;;5112933;28;20054;-73
2022/08/14 07:43:48;;;;;;;6.00;5.40;;;23.20;99.90;;;;;;5114274;28;20402;-73
2022/08/14 07:46:22;;;;;;;7.82;5.32;;;23.30;99.90;;;;;;5112460;28;20039;-73
2022/08/14 07:48:56;;;;;;;16.67;6.88;;;23.50;99.90;;;;;;5112346;28;20724;-73
2022/08/14 07:51:24;;;;;;;8.98;5.25;;;23.50;99.90;;;;;;5099213;28;20044;-72
2022/08/14 07:54:03;;;;;;;5.88;5.28;;;23.60;99.90;;;;;;5111860;28;20043;-73
2022/08/14 07:56:35;;;;;;;6.28;5.20;;;23.60;99.90;;;;;;5112020;28;20048;-73
2022/08/14 07:59:15;;;;;;;7.45;4.75;;;23.70;99.90;;;;;;5112276;28;20391;-74
2022/08/14 08:01:42;;;;;;;5.70;4.75;;;23.90;99.90;;;;;;5108258;28;20517;-72
2022/08/14 08:04:19;;;;;;;8.95;5.50;;;24.00;99.90;;;;;;5076330;28;20407;-72
2022/08/14 08:06:51;;;;;;;9.63;5.05;;;24.00;99.90;;;;;;5107116;28;20071;-72
2022/08/14 08:09:21;;;;;;;6.60;4.80;;;24.00;99.90;;;;;;5094794;28;20483;-75
2022/08/14 08:11:48;;;;;;;10.38;4.82;;;24.10;99.90;;;;;;5094711;28;20062;-72
2022/08/14 08:14:23;;;;;;;5.82;4.68;;;24.10;99.90;;;;;;5095284;28;20044;-69
2022/08/14 08:16:49;;;;;;;10.23;7.28;;;24.30;99.90;;;;;;5074279;28;20036;-66
2022/08/14 08:19:17;;;;;;;6.55;4.85;;;24.40;99.90;;;;;;5095571;28;20085;-68
2022/08/14 08:21:45;;;;;;;7.43;5.05;;;24.50;99.90;;;;;;5112873;28;20495;-69
2022/08/14 08:24:13;;;;;;;9.18;4.95;;;24.60;99.90;;;;;;5110600;28;20056;-69
2022/08/14 08:26:45;;;;;;;8.38;5.82;;;24.50;99.90;;;;;;5111378;28;20047;-68
2022/08/14 08:29:21;;;;;;;8.05;5.53;;;24.50;99.90;;;;;;5090597;28;20055;-67
2022/08/14 08:31:55;;;;;;;7.72;5.18;;;24.60;99.90;;;;;;5110136;28;20039;-69
2022/08/14 08:34:28;;;;;;;11.95;5.13;;;24.70;99.90;;;;;;5112305;28;20052;-68
2022/08/14 08:36:57;;;;;;;12.70;5.57;;;24.80;99.90;;;;;;5109557;28;20368;-69
2022/08/14 08:42:57;;;;;;;8.35;4.85;;;24.90;99.90;;;;;;5111470;28;20040;-73
2022/08/14 08:46:10;;;;;;;5.65;4.18;;;24.90;99.90;;;;;;5109579;28;20052;-74
2022/08/14 08:48:50;;;;;;;7.95;5.22;;;25.00;99.90;;;;;;5108438;28;20044;-74
2022/08/14 08:51:39;;;;;;;10.88;5.15;;;25.10;99.90;;;;;;5110578;28;20060;-75
2022/08/14 08:54:13;;;;;;;16.27;13.02;;;25.10;99.90;;;;;;5108099;28;20052;-66
2022/08/14 08:57:37;;;;;;;9.07;5.35;;;25.10;99.90;;;;;;5106229;28;20048;-66
2022/08/14 09:00:17;;;;;;;8.15;4.75;;;25.20;99.90;;;;;;5092127;28;20040;-68
2022/08/14 09:02:53;;;;;;;7.77;6.97;;;25.30;99.90;;;;;;5060840;28;20068;-67
2022/08/14 09:05:22;;;;;;;7.82;4.20;;;25.40;99.90;;;;;;5095974;28;20702;-67
2022/08/14 09:07:49;;;;;;;4.18;3.75;;;25.50;99.90;;;;;;5090360;28;20066;-67
2022/08/14 09:10:22;;;;;;;8.20;3.65;;;25.50;99.90;;;;;;5099758;28;20047;-65
2022/08/14 09:12:53;;;;;;;7.15;3.55;;;25.50;99.90;;;;;;5108442;28;20101;-75
2022/08/14 09:15:20;;;;;;;4.40;3.47;;;25.60;99.90;;;;;;5111340;28;20044;-72
2022/08/14 09:17:49;;;;;;;9.82;4.38;;;25.70;99.90;;;;;;5111562;28;20439;-72
2022/08/14 09:20:17;;;;;;;7.00;4.00;;;25.70;99.90;;;;;;5112771;28;20400;-73
2022/08/14 09:22:57;;;;;;;;;;;25.80;99.90;;;;;;5096484;28;20138;-77
2022/08/14 09:25:24;;;;;;;5.05;3.53;;;25.90;99.90;;;;;;5111352;28;19927;-74
2022/08/14 09:28:11;;;;;;;4.90;3.33;;;26.00;99.90;;;;;;5112022;28;20047;-74
2022/08/14 09:30:52;;;;;;;4.35;3.42;;;26.00;99.90;;;;;;5094283;28;20043;-74
2022/08/14 09:33:31;;;;;;;4.45;3.05;;;26.10;99.90;;;;;;5111219;28;20479;-71
2022/08/14 09:36:29;;;;;;;6.38;3.05;;;26.20;99.90;;;;;;5110862;28;20039;-75
2022/08/14 09:38:57;;;;;;;7.18;3.20;;;26.30;99.90;;;;;;5109331;28;20043;-69
2022/08/14 09:41:34;;;;;;;;;;;26.40;99.90;;;;;;5112590;28;20151;-70
2022/08/14 09:44:55;;;;;;;18.70;16.70;;;26.50;99.90;;;;;;5111366;28;19927;-71
2022/08/14 09:47:41;;;;;;;4.88;4.07;;;26.50;99.90;;;;;;5112467;28;20399;-71
2022/08/14 09:50:28;;;;;;;5.88;3.67;;;26.60;99.90;;;;;;5112504;28;20044;-72
2022/08/14 09:53:04;;;;;;;6.22;3.00;;;26.80;99.90;;;;;;5094378;28;20055;-65
2022/08/14 09:55:37;;;;;;;4.93;3.00;;;26.80;99.90;;;;;;5112458;28;20059;-70
2022/08/14 09:58:12;;;;;;;4.47;3.25;;;26.90;99.90;;;;;;5111035;28;20402;-72
2022/08/14 10:00:58;;;;;;;3.88;2.80;;;27.00;99.90;;;;;;5111254;28;20447;-72
2022/08/14 10:03:33;;;;;;;3.08;2.63;;;27.10;99.90;;;;;;5091033;28;20491;-72
2022/08/14 10:06:16;;;;;;;4.05;2.67;;;27.20;99.90;;;;;;5075915;28;20104;-72
2022/08/14 10:09:05;;;;;;;9.60;3.47;;;27.20;99.60;;;;;;5095142;28;20483;-73
2022/08/14 10:11:57;;;;;;;6.28;3.40;;;27.30;98.30;;;;;;5115596;28;20139;-74
2022/08/14 10:14:50;;;;;;;10.60;2.65;;;27.30;97.30;;;;;;5115390;28;20057;-73
2022/08/14 10:17:42;;;;;;;7.78;2.83;;;27.40;96.40;;;;;;5096325;28;20047;-74
2022/08/14 10:20:40;;;;;;;5.50;2.60;;;27.40;95.60;;;;;;5107194;28;20043;-75
2022/08/14 10:23:16;;;;;;;29.55;26.58;;;27.40;95.40;;;;;;5095664;28;20048;-76
2022/08/14 10:26:18;;;;;;;6.75;4.03;;;27.50;95.70;;;;;;5095253;28;20047;-75
2022/08/14 10:29:06;;;;;;;6.72;6.05;;;27.60;94.90;;;;;;5110927;28;20169;-77
2022/08/14 10:32:12;;;;;;;5.25;2.97;;;27.70;91.60;;;;;;5114585;28;20047;-75
2022/08/14 10:35:07;;;;;;;3.58;2.55;;;27.90;91.70;;;;;;5116324;28;20043;-78
2022/08/14 10:37:46;;;;;;;3.95;2.25;;;27.90;91.60;;;;;;5114425;28;20449;-77
2022/08/14 10:40:40;;;;;;;4.68;2.75;;;28.00;91.30;;;;;;5113963;28;20134;-76
2022/08/14 10:47:08;;;;;;;8.93;2.75;;;28.10;91.80;;;;;;5111619;28;20142;-77
2022/08/14 10:53:46;;;;;;;5.93;3.17;;;28.30;86.50;;;;;;5116216;28;20075;-77
2022/08/14 10:56:13;;;;;;;5.07;2.60;;;28.40;84.50;;;;;;5100347;28;20139;-77
2022/08/14 10:59:07;;;;;;;3.78;2.35;;;28.50;86.50;;;;;;5108544;28;20419;-78
2022/08/14 11:01:37;;;;;;;5.13;2.35;;;28.60;78.80;;;;;;5112161;28;20142;-77
2022/08/14 11:04:04;;;;;;;4.88;2.40;;;28.70;77.60;;;;;;5097108;28;20044;-78
2022/08/14 11:06:33;;;;;;;3.97;2.53;;;28.70;78.00;;;;;;5114751;28;20130;-77
2022/08/14 11:09:07;;;;;;;4.53;2.10;;;28.70;77.20;;;;;;5114594;28;20058;-75
2022/08/14 11:11:34;;;;;;;4.75;2.10;;;28.80;76.50;;;;;;5097200;28;20061;-73
2022/08/14 11:14:05;;;;;;;6.20;2.42;;;28.90;75.20;;;;;;5096476;28;20058;-73
2022/08/14 11:16:36;;;;;;;4.85;2.08;;;29.00;76.30;;;;;;5115257;28;20154;-73
2022/08/14 11:19:06;;;;;;;5.72;2.55;;;29.00;76.70;;;;;;5112593;28;20096;-73
2022/08/14 11:21:34;;;;;;;4.30;2.33;;;29.10;75.90;;;;;;5107192;28;20372;-73
2022/08/14 11:24:05;;;;;;;3.60;2.10;;;29.10;71.00;;;;;;5092919;28;20051;-73
2022/08/14 11:26:52;;;;;;;2.97;2.30;;;29.20;69.30;;;;;;5092908;28;20097;-74
2022/08/14 11:29:20;;;;;;;4.43;2.30;;;29.30;66.90;;;;;;5110845;28;20135;-73
2022/08/14 11:31:50;;;;;;;2.70;1.92;;;29.40;67.30;;;;;;5113354;28;20047;-73
2022/08/14 11:34:19;;;;;;;4.10;2.30;;;29.40;63.30;;;;;;5096955;28;20067;-72
2022/08/14 11:37:10;;;;;;;2.80;1.85;;;29.40;62.60;;;;;;5113927;28;20468;-72
2022/08/14 11:39:57;;;;;;;2.72;1.70;;;29.50;61.80;;;;;;5113325;28;20104;-73
2022/08/14 11:42:25;;;;;;;3.33;2.00;;;29.50;61.80;;;;;;5095567;28;20055;-73
2022/08/14 11:45:13;;;;;;;3.33;2.00;;;29.50;62.30;;;;;;5099451;28;20508;-73
2022/08/14 11:47:44;;;;;;;4.72;2.20;;;29.50;62.80;;;;;;5113152;28;20146;-73
2022/08/14 11:50:32;;;;;;;3.25;2.00;;;29.50;60.40;;;;;;5114246;28;20055;-73
2022/08/14 11:53:04;;;;;;;2.10;1.70;;;29.60;61.20;;;;;;5112856;28;20051;-73
2022/08/14 11:55:36;;;;;;;3.65;1.70;;;29.60;58.50;;;;;;5113478;28;20058;-73
2022/08/14 11:58:09;;;;;;;2.97;2.13;;;29.70;59.30;;;;;;5111609;28;20454;-73
2022/08/14 12:00:52;;;;;;;2.72;2.00;;;29.80;59.00;;;;;;5096175;28;20174;-75
2022/08/14 12:03:19;;;;;;;4.18;2.22;;;29.90;60.60;;;;;;5112853;28;20484;-73
2022/08/14 12:06:11;;;;;;;3.20;2.25;;;30.10;59.60;;;;;;5113209;28;20044;-73
2022/08/14 12:08:55;;;;;;;3.55;2.00;;;30.20;59.20;;;;;;5113765;28;20047;-73
2022/08/14 12:11:26;;;;;;;3.63;2.00;;;30.30;59.70;;;;;;5111870;28;20122;-74
2022/08/14 12:13:55;;;;;;;4.03;2.00;;;30.30;57.40;;;;;;5095470;28;20048;-71
2022/08/14 12:16:22;;;;;;;3.22;2.35;;;30.30;57.80;;;;;;5092195;28;20044;-75
2022/08/14 12:18:49;;;;;;;12.80;9.73;;;30.40;57.10;;;;;;5091695;28;20048;-75
2022/08/14 12:21:22;;;;;;;6.22;3.85;;;30.50;56.40;;;;;;5097309;28;20487;-75
2022/08/14 12:24:06;;;;;;;5.78;2.85;;;30.60;56.40;;;;;;5111890;28;20040;-70
2022/08/14 12:26:35;;;;;;;6.68;3.70;;;30.70;57.20;;;;;;5111780;28;20047;-70
2022/08/14 12:29:08;;;;;;;3.72;2.38;;;30.90;54.10;;;;;;5111996;28;20487;-72
2022/08/14 12:31:35;;;;;;;7.55;4.75;;;30.90;55.30;;;;;;5112401;28;20502;-70
2022/08/14 12:34:11;;;;;;;13.10;8.95;;;30.90;54.70;;;;;;5111911;28;20047;-70
2022/08/14 12:36:38;;;;;;;9.07;5.53;;;30.90;51.10;;;;;;5111635;28;20079;-69
2022/08/14 12:39:17;;;;;;;;;;;30.90;51.40;;;;;;5111868;28;20086;-66
2022/08/14 12:41:53;;;;;;;4.38;2.95;;;30.80;50.70;;;;;;5111613;28;20302;-65
2022/08/14 12:44:41;;;;;;;5.50;2.75;;;30.70;51.40;;;;;;5112023;28;20487;-65
2022/08/14 12:47:11;;;;;;;4.85;3.47;;;30.80;51.10;;;;;;5112003;28;20116;-66
2022/08/14 12:49:53;;;;;;;4.90;2.92;;;30.90;50.80;;;;;;5075359;28;20047;-67
2022/08/14 12:52:40;;;;;;;25.08;21.50;;;30.90;50.80;;;;;;5103975;28;20084;-62
2022/08/14 12:55:27;;;;;;;10.82;8.82;;;30.90;50.20;;;;;;5102595;28;20044;-64
2022/08/14 12:58:13;;;;;;;15.93;13.75;;;31.10;49.70;;;;;;5086066;28;20083;-62
2022/08/14 13:01:00;;;;;;;16.20;14.70;;;31.00;50.30;;;;;;5090531;28;20104;-62
2022/08/14 13:03:46;;;;;;;7.68;5.53;;;31.00;49.90;;;;;;5093548;28;20071;-62
2022/08/14 13:06:18;;;;;;;12.68;11.02;;;31.10;49.90;;;;;;5103559;28;20470;-63
2022/08/14 13:08:45;;;;;;;7.25;4.00;;;31.10;49.20;;;;;;5089744;28;20043;-66
2022/08/14 13:11:19;;;;;;;5.53;2.30;;;31.10;49.50;;;;;;5094615;28;21342;-65
2022/08/14 13:13:49;;;;;;;4.65;2.20;;;31.10;49.00;;;;;;5100692;28;20072;-67
2022/08/14 13:16:18;;;;;;;2.83;2.25;;;31.10;50.50;;;;;;5089223;28;20085;-66
2022/08/14 13:18:46;;;;;;;7.25;4.97;;;31.20;50.50;;;;;;5102783;28;20547;-67
2022/08/14 13:21:25;;;;;;;4.22;2.00;;;31.30;50.60;;;;;;5103272;28;20048;-66
2022/08/14 13:23:51;;;;;;;2.30;1.88;;;31.30;49.10;;;;;;5104268;28;20040;-66
2022/08/14 13:26:20;;;;;;;5.45;4.93;;;31.40;49.90;;;;;;5100727;28;20048;-67
2022/08/14 13:28:53;;;;;;;4.13;2.80;;;31.40;48.60;;;;;;5083876;28;20052;-67
2022/08/14 13:31:30;;;;;;;3.65;3.03;;;31.30;49.30;;;;;;5075058;28;20097;-66
2022/08/14 13:34:00;;;;;;;7.95;6.95;;;31.20;48.00;;;;;;5103345;28;20043;-66
2022/08/14 13:36:27;;;;;;;28.33;22.75;;;31.20;48.90;;;;;;5103963;28;20222;-69
2022/08/14 13:39:20;;;;;;;8.60;4.53;;;31.30;48.90;;;;;;5099462;28;20070;-65
2022/08/14 13:41:48;;;;;;;4.35;3.38;;;31.30;47.50;;;;;;5103084;28;20039;-68
2022/08/14 13:44:23;;;;;;;6.22;2.40;;;31.30;48.00;;;;;;5110092;28;20455;-67
2022/08/14 13:46:51;;;;;;;5.97;3.10;;;31.30;47.50;;;;;;5090681;28;20131;-66
2022/08/14 13:49:18;;;;;;;4.28;2.00;;;31.30;47.90;;;;;;5108128;28;20044;-67
2022/08/14 13:51:50;;;;;;;3.38;2.22;;;31.40;47.60;;;;;;5108640;28;20044;-66
2022/08/14 13:54:19;;;;;;;5.18;1.83;;;31.50;47.40;;;;;;5091757;28;20067;-67